Terminal Aerodrome Forecast
Issued by NWS Charleston, WV

Current Version | Previous Version | Graphics & Text | Print | Product List | Glossary On
Versions: 1 2 3 4 5 6 7 8 9 10 11 12 13 14 15 16 17 18 19 20 21 22 23 24 25 26 27 28 29 30 31 32 33 34
000
FTUS41 KRLX 212044 AAC
TAFPKB
TAF AMD
KPKB 212044Z 2121/2218 14005KT P6SM VCTS SCT025CB BKN060
     FM220400 17003KT P6SM VCSH BKN040
     FM221400 22005KT P6SM VCTS BKN040CB=

USA.gov is the U.S. government's official web portal to all federal, state and local government web resources and services.